sensor_id;sensor_type;location;lat;lon;timestamp;temperature;humidity
2767;DHT22;1391;46.74287300;11.63683300;2023-11-19T00:01:51;0.80;99.90
2767;DHT22;1391;46.74287300;11.63683300;2023-11-19T00:04:18;0.40;99.90
2767;DHT22;1391;46.74287300;11.63683300;2023-11-19T00:06:45;1.10;99.90
2767;DHT22;1391;46.74287300;11.63683300;2023-11-19T00:09:14;1.00;99.90
2767;DHT22;1391;46.74287300;11.63683300;2023-11-19T00:11:43;1.10;99.90
2767;DHT22;1391;46.74287300;11.63683300;2023-11-19T00:14:11;0.80;99.90
2767;DHT22;1391;46.74287300;11.63683300;2023-11-19T00:16:39;0.60;99.90
2767;DHT22;1391;46.74287300;11.63683300;2023-11-19T00:19:06;0.50;99.90
2767;DHT22;1391;46.74287300;11.63683300;2023-11-19T00:21:34;0.70;99.90
2767;DHT22;1391;46.74287300;11.63683300;2023-11-19T00:24:02;0.80;99.90
2767;DHT22;1391;46.74287300;11.63683300;2023-11-19T00:26:30;0.50;99.90
2767;DHT22;1391;46.74287300;11.63683300;2023-11-19T00:28:58;0.80;99.90
2767;DHT22;1391;46.74287300;11.63683300;2023-11-19T00:31:25;0.50;99.90
2767;DHT22;1391;46.74287300;11.63683300;2023-11-19T00:33:54;0.70;99.90
2767;DHT22;1391;46.74287300;11.63683300;2023-11-19T00:36:24;1.00;99.90
2767;DHT22;1391;46.74287300;11.63683300;2023-11-19T00:38:51;1.10;99.90
2767;DHT22;1391;46.74287300;11.63683300;2023-11-19T00:41:18;1.00;99.90
2767;DHT22;1391;46.74287300;11.63683300;2023-11-19T00:43:46;0.80;99.90
2767;DHT22;1391;46.74287300;11.63683300;2023-11-19T00:46:15;0.50;99.90
2767;DHT22;1391;46.74287300;11.63683300;2023-11-19T00:48:42;0.70;99.90
2767;DHT22;1391;46.74287300;11.63683300;2023-11-19T00:51:11;0.80;99.90
2767;DHT22;1391;46.74287300;11.63683300;2023-11-19T00:53:39;0.60;99.90
2767;DHT22;1391;46.74287300;11.63683300;2023-11-19T00:56:07;0.60;99.90
2767;DHT22;1391;46.74287300;11.63683300;2023-11-19T00:58:35;0.60;99.90
2767;DHT22;1391;46.74287300;11.63683300;2023-11-19T01:01:02;0.80;99.90
2767;DHT22;1391;46.74287300;11.63683300;2023-11-19T01:03:32;0.70;99.90
2767;DHT22;1391;46.74287300;11.63683300;2023-11-19T01:05:59;0.40;99.90
2767;DHT22;1391;46.74287300;11.63683300;2023-11-19T01:08:28;0.40;99.90
2767;DHT22;1391;46.74287300;11.63683300;2023-11-19T01:10:55;0.50;99.90
2767;DHT22;1391;46.74287300;11.63683300;2023-11-19T01:13:23;0.80;99.90
2767;DHT22;1391;46.74287300;11.63683300;2023-11-19T01:15:50;0.50;99.90
2767;DHT22;1391;46.74287300;11.63683300;2023-11-19T01:18:17;0.80;99.90
2767;DHT22;1391;46.74287300;11.63683300;2023-11-19T01:20:46;0.50;99.90
2767;DHT22;1391;46.74287300;11.63683300;2023-11-19T01:23:13;0.70;99.90
2767;DHT22;1391;46.74287300;11.63683300;2023-11-19T01:25:40;0.50;99.90
2767;DHT22;1391;46.74287300;11.63683300;2023-11-19T01:28:07;0.10;99.90
2767;DHT22;1391;46.74287300;11.63683300;2023-11-19T01:30:35;0.30;99.90
2767;DHT22;1391;46.74287300;11.63683300;2023-11-19T01:33:02;0.20;99.90
2767;DHT22;1391;46.74287300;11.63683300;2023-11-19T01:35:30;0.40;99.90
2767;DHT22;1391;46.74287300;11.63683300;2023-11-19T01:37:58;0.30;99.90
2767;DHT22;1391;46.74287300;11.63683300;2023-11-19T01:40:26;0.20;99.90
2767;DHT22;1391;46.74287300;11.63683300;2023-11-19T01:42:54;0.10;99.90
2767;DHT22;1391;46.74287300;11.63683300;2023-11-19T01:45:27;0.40;99.90
2767;DHT22;1391;46.74287300;11.63683300;2023-11-19T01:47:56;0.50;99.90
2767;DHT22;1391;46.74287300;11.63683300;2023-11-19T01:50:24;1.00;99.90
2767;DHT22;1391;46.74287300;11.63683300;2023-11-19T01:52:52;0.40;99.90
2767;DHT22;1391;46.74287300;11.63683300;2023-11-19T01:55:22;0.50;99.90
2767;DHT22;1391;46.74287300;11.63683300;2023-11-19T01:57:49;0.30;99.90
2767;DHT22;1391;46.74287300;11.63683300;2023-11-19T02:00:18;0.20;99.90
2767;DHT22;1391;46.74287300;11.63683300;2023-11-19T02:02:46;0.60;99.90
2767;DHT22;1391;46.74287300;11.63683300;2023-11-19T02:05:15;0.50;99.90
2767;DHT22;1391;46.74287300;11.63683300;2023-11-19T02:07:43;0.80;99.90
2767;DHT22;1391;46.74287300;11.63683300;2023-11-19T02:10:13;0.50;99.90
2767;DHT22;1391;46.74287300;11.63683300;2023-11-19T02:12:43;0.70;99.90
2767;DHT22;1391;46.74287300;11.63683300;2023-11-19T02:15:11;1.10;99.90
2767;DHT22;1391;46.74287300;11.63683300;2023-11-19T02:17:38;1.00;99.90
2767;DHT22;1391;46.74287300;11.63683300;2023-11-19T02:20:06;1.10;99.90
2767;DHT22;1391;46.74287300;11.63683300;2023-11-19T02:22:37;1.00;99.90
2767;DHT22;1391;46.74287300;11.63683300;2023-11-19T02:25:07;1.30;99.90
2767;DHT22;1391;46.74287300;11.63683300;2023-11-19T02:27:47;1.10;99.90
2767;DHT22;1391;46.74287300;11.63683300;2023-11-19T02:30:17;1.40;99.90
2767;DHT22;1391;46.74287300;11.63683300;2023-11-19T02:32:44;1.20;99.90
2767;DHT22;1391;46.74287300;11.63683300;2023-11-19T02:35:11;1.20;99.90
2767;DHT22;1391;46.74287300;11.63683300;2023-11-19T02:37:38;1.10;99.90
2767;DHT22;1391;46.74287300;11.63683300;2023-11-19T02:40:06;1.40;99.90
2767;DHT22;1391;46.74287300;11.63683300;2023-11-19T02:42:34;1.60;99.90
2767;DHT22;1391;46.74287300;11.63683300;2023-11-19T02:45:03;1.50;99.90
2767;DHT22;1391;46.74287300;11.63683300;2023-11-19T02:47:33;1.40;99.90
2767;DHT22;1391;46.74287300;11.63683300;2023-11-19T02:50:02;1.40;99.90
2767;DHT22;1391;46.74287300;11.63683300;2023-11-19T02:52:29;1.40;99.90
2767;DHT22;1391;46.74287300;11.63683300;2023-11-19T02:55:00;1.70;99.90
2767;DHT22;1391;46.74287300;11.63683300;2023-11-19T02:57:31;1.40;99.90
2767;DHT22;1391;46.74287300;11.63683300;2023-11-19T02:59:58;1.40;99.90
2767;DHT22;1391;46.74287300;11.63683300;2023-11-19T03:02:26;1.70;99.90
2767;DHT22;1391;46.74287300;11.63683300;2023-11-19T03:04:59;1.60;99.90
2767;DHT22;1391;46.74287300;11.63683300;2023-11-19T03:07:26;1.80;99.90
2767;DHT22;1391;46.74287300;11.63683300;2023-11-19T03:09:53;1.70;99.90
2767;DHT22;1391;46.74287300;11.63683300;2023-11-19T03:12:21;1.70;99.90
2767;DHT22;1391;46.74287300;11.63683300;2023-11-19T03:14:48;1.60;99.90
2767;DHT22;1391;46.74287300;11.63683300;2023-11-19T03:17:16;1.70;99.90
2767;DHT22;1391;46.74287300;11.63683300;2023-11-19T03:19:46;1.60;99.90
2767;DHT22;1391;46.74287300;11.63683300;2023-11-19T03:22:14;1.70;99.90
2767;DHT22;1391;46.74287300;11.63683300;2023-11-19T03:24:41;1.60;99.90
2767;DHT22;1391;46.74287300;11.63683300;2023-11-19T03:27:08;1.90;99.90
2767;DHT22;1391;46.74287300;11.63683300;2023-11-19T03:29:35;2.10;99.90
2767;DHT22;1391;46.74287300;11.63683300;2023-11-19T03:32:04;1.70;99.90
2767;DHT22;1391;46.74287300;11.63683300;2023-11-19T03:34:32;1.70;99.90
2767;DHT22;1391;46.74287300;11.63683300;2023-11-19T03:37:00;1.50;99.90
2767;DHT22;1391;46.74287300;11.63683300;2023-11-19T03:39:28;1.50;99.90
2767;DHT22;1391;46.74287300;11.63683300;2023-11-19T03:41:55;1.50;99.90
2767;DHT22;1391;46.74287300;11.63683300;2023-11-19T03:44:22;1.70;99.90
2767;DHT22;1391;46.74287300;11.63683300;2023-11-19T03:46:52;1.80;99.90
2767;DHT22;1391;46.74287300;11.63683300;2023-11-19T03:49:19;1.60;99.90
2767;DHT22;1391;46.74287300;11.63683300;2023-11-19T03:51:46;1.70;99.90
2767;DHT22;1391;46.74287300;11.63683300;2023-11-19T03:54:15;1.60;99.90
2767;DHT22;1391;46.74287300;11.63683300;2023-11-19T03:56:42;1.70;99.90
2767;DHT22;1391;46.74287300;11.63683300;2023-11-19T03:59:09;1.50;99.90
2767;DHT22;1391;46.74287300;11.63683300;2023-11-19T04:01:36;1.80;99.90
2767;DHT22;1391;46.74287300;11.63683300;2023-11-19T04:04:04;1.90;99.90
2767;DHT22;1391;46.74287300;11.63683300;2023-11-19T04:06:31;1.80;99.90
2767;DHT22;1391;46.74287300;11.63683300;2023-11-19T04:08:58;1.60;99.90
2767;DHT22;1391;46.74287300;11.63683300;2023-11-19T04:11:28;1.70;99.90
2767;DHT22;1391;46.74287300;11.63683300;2023-11-19T04:13:55;1.90;99.90
2767;DHT22;1391;46.74287300;11.63683300;2023-11-19T04:16:26;2.10;99.90
2767;DHT22;1391;46.74287300;11.63683300;2023-11-19T04:18:54;2.00;99.90
2767;DHT22;1391;46.74287300;11.63683300;2023-11-19T04:21:21;2.20;99.90
2767;DHT22;1391;46.74287300;11.63683300;2023-11-19T04:23:49;2.20;99.90
2767;DHT22;1391;46.74287300;11.63683300;2023-11-19T04:26:16;1.80;99.90
2767;DHT22;1391;46.74287300;11.63683300;2023-11-19T04:28:45;2.30;99.90
2767;DHT22;1391;46.74287300;11.63683300;2023-11-19T04:31:12;2.00;99.90
2767;DHT22;1391;46.74287300;11.63683300;2023-11-19T04:33:39;2.40;99.90
2767;DHT22;1391;46.74287300;11.63683300;2023-11-19T04:36:07;2.20;99.90
2767;DHT22;1391;46.74287300;11.63683300;2023-11-19T04:38:35;2.10;99.90
2767;DHT22;1391;46.74287300;11.63683300;2023-11-19T04:41:03;1.90;99.90
2767;DHT22;1391;46.74287300;11.63683300;2023-11-19T04:43:31;2.00;99.90
2767;DHT22;1391;46.74287300;11.63683300;2023-11-19T04:45:59;2.00;99.90
2767;DHT22;1391;46.74287300;11.63683300;2023-11-19T04:48:27;2.30;99.90
2767;DHT22;1391;46.74287300;11.63683300;2023-11-19T04:50:54;2.00;99.90
2767;DHT22;1391;46.74287300;11.63683300;2023-11-19T04:53:21;2.00;99.90
2767;DHT22;1391;46.74287300;11.63683300;2023-11-19T04:55:48;2.20;99.90
2767;DHT22;1391;46.74287300;11.63683300;2023-11-19T04:58:15;2.30;99.90
2767;DHT22;1391;46.74287300;11.63683300;2023-11-19T05:00:42;2.30;99.90
2767;DHT22;1391;46.74287300;11.63683300;2023-11-19T05:03:12;2.20;99.90
2767;DHT22;1391;46.74287300;11.63683300;2023-11-19T05:05:39;2.30;99.90
2767;DHT22;1391;46.74287300;11.63683300;2023-11-19T05:08:06;2.20;99.90
2767;DHT22;1391;46.74287300;11.63683300;2023-11-19T05:10:33;2.00;99.90
2767;DHT22;1391;46.74287300;11.63683300;2023-11-19T05:13:02;2.30;99.90
2767;DHT22;1391;46.74287300;11.63683300;2023-11-19T05:15:29;2.00;99.90
2767;DHT22;1391;46.74287300;11.63683300;2023-11-19T05:17:56;2.10;99.90
2767;DHT22;1391;46.74287300;11.63683300;2023-11-19T05:20:25;1.90;99.90
2767;DHT22;1391;46.74287300;11.63683300;2023-11-19T05:22:52;1.90;99.90
2767;DHT22;1391;46.74287300;11.63683300;2023-11-19T05:25:22;2.30;99.90
2767;DHT22;1391;46.74287300;11.63683300;2023-11-19T05:27:50;2.30;99.90
2767;DHT22;1391;46.74287300;11.63683300;2023-11-19T05:30:18;2.20;99.90
2767;DHT22;1391;46.74287300;11.63683300;2023-11-19T05:32:45;2.30;99.90
2767;DHT22;1391;46.74287300;11.63683300;2023-11-19T05:35:12;2.30;99.90
2767;DHT22;1391;46.74287300;11.63683300;2023-11-19T05:37:41;2.30;99.90
2767;DHT22;1391;46.74287300;11.63683300;2023-11-19T05:40:09;2.20;99.90
2767;DHT22;1391;46.74287300;11.63683300;2023-11-19T05:42:39;2.30;99.90
2767;DHT22;1391;46.74287300;11.63683300;2023-11-19T05:45:08;2.30;99.90
2767;DHT22;1391;46.74287300;11.63683300;2023-11-19T05:47:37;2.60;99.90
2767;DHT22;1391;46.74287300;11.63683300;2023-11-19T05:50:05;2.60;99.90
2767;DHT22;1391;46.74287300;11.63683300;2023-11-19T05:52:33;2.90;99.90
2767;DHT22;1391;46.74287300;11.63683300;2023-11-19T05:55:02;2.40;99.90
2767;DHT22;1391;46.74287300;11.63683300;2023-11-19T05:57:31;2.50;99.90
2767;DHT22;1391;46.74287300;11.63683300;2023-11-19T06:00:00;2.70;99.90
2767;DHT22;1391;46.74287300;11.63683300;2023-11-19T06:02:29;2.40;99.90
2767;DHT22;1391;46.74287300;11.63683300;2023-11-19T06:04:56;2.70;99.90
2767;DHT22;1391;46.74287300;11.63683300;2023-11-19T06:07:23;2.40;99.90
2767;DHT22;1391;46.74287300;11.63683300;2023-11-19T06:09:50;2.70;99.90
2767;DHT22;1391;46.74287300;11.63683300;2023-11-19T06:12:19;2.40;99.90
2767;DHT22;1391;46.74287300;11.63683300;2023-11-19T06:14:47;2.30;99.90
2767;DHT22;1391;46.74287300;11.63683300;2023-11-19T06:17:14;2.50;99.90
2767;DHT22;1391;46.74287300;11.63683300;2023-11-19T06:19:41;2.40;99.90
2767;DHT22;1391;46.74287300;11.63683300;2023-11-19T06:22:08;2.30;99.90
2767;DHT22;1391;46.74287300;11.63683300;2023-11-19T06:24:35;2.50;99.90
2767;DHT22;1391;46.74287300;11.63683300;2023-11-19T06:27:03;2.40;99.90
2767;DHT22;1391;46.74287300;11.63683300;2023-11-19T06:29:32;2.60;99.90
2767;DHT22;1391;46.74287300;11.63683300;2023-11-19T06:31:59;2.60;99.90
2767;DHT22;1391;46.74287300;11.63683300;2023-11-19T06:34:28;2.50;99.90
2767;DHT22;1391;46.74287300;11.63683300;2023-11-19T06:36:55;2.40;99.90
2767;DHT22;1391;46.74287300;11.63683300;2023-11-19T06:39:22;2.80;99.90
2767;DHT22;1391;46.74287300;11.63683300;2023-11-19T06:41:49;2.80;99.90
2767;DHT22;1391;46.74287300;11.63683300;2023-11-19T06:44:16;2.70;99.90
2767;DHT22;1391;46.74287300;11.63683300;2023-11-19T06:46:45;2.90;99.90
2767;DHT22;1391;46.74287300;11.63683300;2023-11-19T06:49:12;2.80;99.90
2767;DHT22;1391;46.74287300;11.63683300;2023-11-19T06:51:41;3.10;99.90
2767;DHT22;1391;46.74287300;11.63683300;2023-11-19T06:54:09;3.20;99.90
2767;DHT22;1391;46.74287300;11.63683300;2023-11-19T06:56:36;3.20;99.90
2767;DHT22;1391;46.74287300;11.63683300;2023-11-19T06:59:03;3.10;99.90
2767;DHT22;1391;46.74287300;11.63683300;2023-11-19T07:01:34;2.90;99.90
2767;DHT22;1391;46.74287300;11.63683300;2023-11-19T07:04:04;3.20;99.90
2767;DHT22;1391;46.74287300;11.63683300;2023-11-19T07:06:35;3.20;99.90
2767;DHT22;1391;46.74287300;11.63683300;2023-11-19T07:09:03;3.00;99.90
2767;DHT22;1391;46.74287300;11.63683300;2023-11-19T07:11:36;2.80;99.90
2767;DHT22;1391;46.74287300;11.63683300;2023-11-19T07:14:04;3.20;99.90
2767;DHT22;1391;46.74287300;11.63683300;2023-11-19T07:16:32;3.30;99.90
2767;DHT22;1391;46.74287300;11.63683300;2023-11-19T07:19:00;3.40;99.90
2767;DHT22;1391;46.74287300;11.63683300;2023-11-19T07:21:28;3.60;99.90
2767;DHT22;1391;46.74287300;11.63683300;2023-11-19T07:23:56;3.50;99.90
2767;DHT22;1391;46.74287300;11.63683300;2023-11-19T07:26:24;3.50;99.90
2767;DHT22;1391;46.74287300;11.63683300;2023-11-19T07:28:52;3.50;99.90
2767;DHT22;1391;46.74287300;11.63683300;2023-11-19T07:31:21;3.50;99.90
2767;DHT22;1391;46.74287300;11.63683300;2023-11-19T07:33:49;3.40;99.90
2767;DHT22;1391;46.74287300;11.63683300;2023-11-19T07:36:16;3.30;99.90
2767;DHT22;1391;46.74287300;11.63683300;2023-11-19T07:38:45;3.50;99.90
2767;DHT22;1391;46.74287300;11.63683300;2023-11-19T07:41:13;3.50;99.90
2767;DHT22;1391;46.74287300;11.63683300;2023-11-19T07:43:43;3.40;99.90
2767;DHT22;1391;46.74287300;11.63683300;2023-11-19T07:46:11;3.20;99.90
2767;DHT22;1391;46.74287300;11.63683300;2023-11-19T07:48:39;3.20;99.90
2767;DHT22;1391;46.74287300;11.63683300;2023-11-19T07:51:08;3.30;99.90
2767;DHT22;1391;46.74287300;11.63683300;2023-11-19T07:53:35;3.20;99.90
2767;DHT22;1391;46.74287300;11.63683300;2023-11-19T07:56:06;3.40;99.90
2767;DHT22;1391;46.74287300;11.63683300;2023-11-19T07:58:34;3.70;99.90
2767;DHT22;1391;46.74287300;11.63683300;2023-11-19T08:01:03;3.60;99.90
2767;DHT22;1391;46.74287300;11.63683300;2023-11-19T08:03:31;3.80;99.90
2767;DHT22;1391;46.74287300;11.63683300;2023-11-19T08:06:00;3.80;99.90
2767;DHT22;1391;46.74287300;11.63683300;2023-11-19T08:08:27;3.80;99.90
2767;DHT22;1391;46.74287300;11.63683300;2023-11-19T08:10:55;3.70;99.90
2767;DHT22;1391;46.74287300;11.63683300;2023-11-19T08:13:25;3.80;99.90
2767;DHT22;1391;46.74287300;11.63683300;2023-11-19T08:15:52;3.70;99.90
2767;DHT22;1391;46.74287300;11.63683300;2023-11-19T08:18:19;3.80;99.90
2767;DHT22;1391;46.74287300;11.63683300;2023-11-19T08:20:46;4.20;99.90
2767;DHT22;1391;46.74287300;11.63683300;2023-11-19T08:23:18;4.20;99.90
2767;DHT22;1391;46.74287300;11.63683300;2023-11-19T08:25:45;4.20;99.90
2767;DHT22;1391;46.74287300;11.63683300;2023-11-19T08:28:12;4.10;99.90
2767;DHT22;1391;46.74287300;11.63683300;2023-11-19T08:30:41;4.20;99.90
2767;DHT22;1391;46.74287300;11.63683300;2023-11-19T08:33:09;4.10;99.90
2767;DHT22;1391;46.74287300;11.63683300;2023-11-19T08:35:37;4.40;99.90
2767;DHT22;1391;46.74287300;11.63683300;2023-11-19T08:38:04;4.70;99.90
2767;DHT22;1391;46.74287300;11.63683300;2023-11-19T08:40:31;4.50;99.90
2767;DHT22;1391;46.74287300;11.63683300;2023-11-19T08:42:58;4.50;99.90
2767;DHT22;1391;46.74287300;11.63683300;2023-11-19T08:45:26;4.60;99.90
2767;DHT22;1391;46.74287300;11.63683300;2023-11-19T08:47:55;5.10;99.90
2767;DHT22;1391;46.74287300;11.63683300;2023-11-19T08:50:22;4.60;99.90
2767;DHT22;1391;46.74287300;11.63683300;2023-11-19T08:52:49;4.70;99.90
2767;DHT22;1391;46.74287300;11.63683300;2023-11-19T08:55:17;5.10;99.90
2767;DHT22;1391;46.74287300;11.63683300;2023-11-19T08:57:44;5.20;99.90
2767;DHT22;1391;46.74287300;11.63683300;2023-11-19T09:00:12;5.20;99.90
2767;DHT22;1391;46.74287300;11.63683300;2023-11-19T09:02:40;5.20;99.90
2767;DHT22;1391;46.74287300;11.63683300;2023-11-19T09:05:10;5.20;99.90
2767;DHT22;1391;46.74287300;11.63683300;2023-11-19T09:07:38;4.80;99.90
2767;DHT22;1391;46.74287300;11.63683300;2023-11-19T09:10:06;4.90;99.90
2767;DHT22;1391;46.74287300;11.63683300;2023-11-19T09:12:34;5.10;99.90
2767;DHT22;1391;46.74287300;11.63683300;2023-11-19T09:15:01;5.00;99.90
2767;DHT22;1391;46.74287300;11.63683300;2023-11-19T09:17:29;5.50;99.90
2767;DHT22;1391;46.74287300;11.63683300;2023-11-19T09:19:56;5.40;99.90
2767;DHT22;1391;46.74287300;11.63683300;2023-11-19T09:22:25;5.20;99.90
2767;DHT22;1391;46.74287300;11.63683300;2023-11-19T09:24:52;6.10;99.90
2767;DHT22;1391;46.74287300;11.63683300;2023-11-19T09:27:19;6.40;99.90
2767;DHT22;1391;46.74287300;11.63683300;2023-11-19T09:29:47;6.80;99.90
2767;DHT22;1391;46.74287300;11.63683300;2023-11-19T09:32:16;6.50;99.90
2767;DHT22;1391;46.74287300;11.63683300;2023-11-19T09:34:43;6.80;99.90
2767;DHT22;1391;46.74287300;11.63683300;2023-11-19T09:37:10;7.10;99.90
2767;DHT22;1391;46.74287300;11.63683300;2023-11-19T09:39:38;6.70;99.90
2767;DHT22;1391;46.74287300;11.63683300;2023-11-19T09:42:09;6.70;99.90
2767;DHT22;1391;46.74287300;11.63683300;2023-11-19T09:44:37;6.40;99.90
2767;DHT22;1391;46.74287300;11.63683300;2023-11-19T09:47:05;6.30;99.90
2767;DHT22;1391;46.74287300;11.63683300;2023-11-19T09:49:34;6.40;99.90
2767;DHT22;1391;46.74287300;11.63683300;2023-11-19T09:52:03;6.10;99.90
2767;DHT22;1391;46.74287300;11.63683300;2023-11-19T09:54:31;6.10;99.90
2767;DHT22;1391;46.74287300;11.63683300;2023-11-19T09:56:59;5.90;99.90
2767;DHT22;1391;46.74287300;11.63683300;2023-11-19T09:59:29;6.40;99.90
2767;DHT22;1391;46.74287300;11.63683300;2023-11-19T10:01:57;6.30;99.90
2767;DHT22;1391;46.74287300;11.63683300;2023-11-19T10:04:26;6.30;99.90
2767;DHT22;1391;46.74287300;11.63683300;2023-11-19T10:06:54;6.20;99.90
2767;DHT22;1391;46.74287300;11.63683300;2023-11-19T10:09:22;6.30;99.90
2767;DHT22;1391;46.74287300;11.63683300;2023-11-19T10:11:50;6.30;99.90
2767;DHT22;1391;46.74287300;11.63683300;2023-11-19T10:14:21;6.40;99.90
2767;DHT22;1391;46.74287300;11.63683300;2023-11-19T10:16:50;6.30;99.90
2767;DHT22;1391;46.74287300;11.63683300;2023-11-19T10:19:20;6.20;99.90
2767;DHT22;1391;46.74287300;11.63683300;2023-11-19T10:21:48;6.30;99.90
2767;DHT22;1391;46.74287300;11.63683300;2023-11-19T10:24:15;6.10;99.90
2767;DHT22;1391;46.74287300;11.63683300;2023-11-19T10:26:43;6.00;99.90
2767;DHT22;1391;46.74287300;11.63683300;2023-11-19T10:29:12;6.40;99.90
2767;DHT22;1391;46.74287300;11.63683300;2023-11-19T10:31:56;6.30;99.90
2767;DHT22;1391;46.74287300;11.63683300;2023-11-19T10:34:27;6.60;99.90
2767;DHT22;1391;46.74287300;11.63683300;2023-11-19T10:36:55;6.60;99.90
2767;DHT22;1391;46.74287300;11.63683300;2023-11-19T10:39:23;6.50;99.90
2767;DHT22;1391;46.74287300;11.63683300;2023-11-19T10:41:50;6.20;99.90
2767;DHT22;1391;46.74287300;11.63683300;2023-11-19T10:44:33;6.70;99.90
2767;DHT22;1391;46.74287300;11.63683300;2023-11-19T10:47:06;6.80;99.90
2767;DHT22;1391;46.74287300;11.63683300;2023-11-19T10:49:35;6.70;99.90
2767;DHT22;1391;46.74287300;11.63683300;2023-11-19T10:52:03;6.70;99.90
2767;DHT22;1391;46.74287300;11.63683300;2023-11-19T10:54:34;6.70;99.90
2767;DHT22;1391;46.74287300;11.63683300;2023-11-19T10:57:02;6.70;99.90
2767;DHT22;1391;46.74287300;11.63683300;2023-11-19T10:59:32;6.70;99.90
2767;DHT22;1391;46.74287300;11.63683300;2023-11-19T11:02:03;7.40;99.90
2767;DHT22;1391;46.74287300;11.63683300;2023-11-19T11:04:39;7.10;95.90
2767;DHT22;1391;46.74287300;11.63683300;2023-11-19T11:07:09;7.40;94.90
2767;DHT22;1391;46.74287300;11.63683300;2023-11-19T11:09:37;7.20;93.30
2767;DHT22;1391;46.74287300;11.63683300;2023-11-19T11:12:06;8.00;92.30
2767;DHT22;1391;46.74287300;11.63683300;2023-11-19T11:14:34;8.30;91.40
2767;DHT22;1391;46.74287300;11.63683300;2023-11-19T11:17:09;8.10;90.20
2767;DHT22;1391;46.74287300;11.63683300;2023-11-19T11:19:38;8.70;80.00
2767;DHT22;1391;46.74287300;11.63683300;2023-11-19T11:22:06;8.90;76.80
2767;DHT22;1391;46.74287300;11.63683300;2023-11-19T11:28:02;9.20;67.00
2767;DHT22;1391;46.74287300;11.63683300;2023-11-19T11:30:51;9.00;62.40
2767;DHT22;1391;46.74287300;11.63683300;2023-11-19T11:36:29;9.10;62.90
2767;DHT22;1391;46.74287300;11.63683300;2023-11-19T11:39:00;9.10;61.60
2767;DHT22;1391;46.74287300;11.63683300;2023-11-19T11:41:33;9.50;57.70
2767;DHT22;1391;46.74287300;11.63683300;2023-11-19T11:44:00;9.60;56.10
2767;DHT22;1391;46.74287300;11.63683300;2023-11-19T11:46:55;9.70;54.50
2767;DHT22;1391;46.74287300;11.63683300;2023-11-19T11:49:28;10.00;50.40
2767;DHT22;1391;46.74287300;11.63683300;2023-11-19T11:52:02;9.80;54.60
2767;DHT22;1391;46.74287300;11.63683300;2023-11-19T11:54:30;10.30;54.70
2767;DHT22;1391;46.74287300;11.63683300;2023-11-19T11:57:08;10.40;49.80
2767;DHT22;1391;46.74287300;11.63683300;2023-11-19T11:59:48;10.40;47.90
2767;DHT22;1391;46.74287300;11.63683300;2023-11-19T12:02:18;10.40;50.00
2767;DHT22;1391;46.74287300;11.63683300;2023-11-19T12:04:49;10.60;47.80
2767;DHT22;1391;46.74287300;11.63683300;2023-11-19T12:07:18;10.70;53.40
2767;DHT22;1391;46.74287300;11.63683300;2023-11-19T12:09:51;9.90;52.00
2767;DHT22;1391;46.74287300;11.63683300;2023-11-19T12:12:27;9.90;54.80
2767;DHT22;1391;46.74287300;11.63683300;2023-11-19T12:15:03;9.40;54.90
2767;DHT22;1391;46.74287300;11.63683300;2023-11-19T12:17:47;9.00;58.10
2767;DHT22;1391;46.74287300;11.63683300;2023-11-19T12:20:20;9.10;59.40
2767;DHT22;1391;46.74287300;11.63683300;2023-11-19T12:22:49;9.20;63.90
2767;DHT22;1391;46.74287300;11.63683300;2023-11-19T12:25:17;9.10;61.50
2767;DHT22;1391;46.74287300;11.63683300;2023-11-19T12:27:47;9.10;62.60
2767;DHT22;1391;46.74287300;11.63683300;2023-11-19T12:30:17;9.10;61.00
2767;DHT22;1391;46.74287300;11.63683300;2023-11-19T12:32:45;9.10;64.90
2767;DHT22;1391;46.74287300;11.63683300;2023-11-19T12:35:13;8.80;66.80
2767;DHT22;1391;46.74287300;11.63683300;2023-11-19T12:37:43;8.80;68.00
2767;DHT22;1391;46.74287300;11.63683300;2023-11-19T12:40:13;8.70;71.30
2767;DHT22;1391;46.74287300;11.63683300;2023-11-19T12:42:41;8.30;71.50
2767;DHT22;1391;46.74287300;11.63683300;2023-11-19T12:45:12;8.30;75.60
2767;DHT22;1391;46.74287300;11.63683300;2023-11-19T12:47:42;7.90;77.80
2767;DHT22;1391;46.74287300;11.63683300;2023-11-19T12:50:13;7.90;80.20
2767;DHT22;1391;46.74287300;11.63683300;2023-11-19T12:52:55;7.90;85.70
2767;DHT22;1391;46.74287300;11.63683300;2023-11-19T12:55:27;7.60;88.00
2767;DHT22;1391;46.74287300;11.63683300;2023-11-19T12:57:56;7.80;91.30
2767;DHT22;1391;46.74287300;11.63683300;2023-11-19T13:00:26;7.20;91.00
2767;DHT22;1391;46.74287300;11.63683300;2023-11-19T13:02:56;7.20;91.80
2767;DHT22;1391;46.74287300;11.63683300;2023-11-19T13:05:26;7.20;94.10
2767;DHT22;1391;46.74287300;11.63683300;2023-11-19T13:08:03;7.10;95.70
2767;DHT22;1391;46.74287300;11.63683300;2023-11-19T13:10:32;7.40;96.10
2767;DHT22;1391;46.74287300;11.63683300;2023-11-19T13:13:07;7.20;96.10
2767;DHT22;1391;46.74287300;11.63683300;2023-11-19T13:15:35;7.10;95.70
2767;DHT22;1391;46.74287300;11.63683300;2023-11-19T13:18:03;7.40;95.80
2767;DHT22;1391;46.74287300;11.63683300;2023-11-19T13:20:30;7.10;94.80
2767;DHT22;1391;46.74287300;11.63683300;2023-11-19T13:22:59;7.20;95.00
2767;DHT22;1391;46.74287300;11.63683300;2023-11-19T13:25:29;7.40;95.10
2767;DHT22;1391;46.74287300;11.63683300;2023-11-19T13:27:58;7.20;95.10
2767;DHT22;1391;46.74287300;11.63683300;2023-11-19T13:30:25;7.30;95.90
2767;DHT22;1391;46.74287300;11.63683300;2023-11-19T13:32:54;7.40;96.50
2767;DHT22;1391;46.74287300;11.63683300;2023-11-19T13:35:22;7.20;96.50
2767;DHT22;1391;46.74287300;11.63683300;2023-11-19T13:37:49;7.00;96.70
2767;DHT22;1391;46.74287300;11.63683300;2023-11-19T13:40:18;7.20;96.20
2767;DHT22;1391;46.74287300;11.63683300;2023-11-19T13:42:48;7.30;95.00
2767;DHT22;1391;46.74287300;11.63683300;2023-11-19T13:45:15;7.20;95.50
2767;DHT22;1391;46.74287300;11.63683300;2023-11-19T13:47:45;7.10;97.00
2767;DHT22;1391;46.74287300;11.63683300;2023-11-19T13:50:14;7.10;98.60
2767;DHT22;1391;46.74287300;11.63683300;2023-11-19T13:52:43;6.80;99.50
2767;DHT22;1391;46.74287300;11.63683300;2023-11-19T13:55:13;7.10;99.90
2767;DHT22;1391;46.74287300;11.63683300;2023-11-19T13:57:42;7.00;99.90
2767;DHT22;1391;46.74287300;11.63683300;2023-11-19T14:00:11;7.10;99.90